createdAt,value
2023-05-22T00:02:39.177Z,13.65
2023-05-22T00:08:42.878Z,11.98
2023-05-22T00:14:47.628Z,13.35
2023-05-22T00:20:52.025Z,12.45
2023-05-22T00:26:55.441Z,10.15
2023-05-22T00:33:02.009Z,12.77
2023-05-22T00:39:05.595Z,17.92
2023-05-22T00:45:09.721Z,14.85
2023-05-22T00:51:14.881Z,11.35
2023-05-22T00:57:18.936Z,16.38
2023-05-22T01:03:27.077Z,14.10
2023-05-22T01:09:32.560Z,12.75
2023-05-22T01:15:41.057Z,15.55
2023-05-22T01:21:47.115Z,16.77
2023-05-22T01:28:05.518Z,17.98
2023-05-22T01:34:12.770Z,20.83
2023-05-22T01:40:16.398Z,17.50
2023-05-22T01:46:20.226Z,14.18
2023-05-22T01:52:27.965Z,14.55
2023-05-22T01:58:35.379Z,13.95
2023-05-22T02:04:40.547Z,13.07
2023-05-22T02:10:46.708Z,11.80
2023-05-22T02:16:50.979Z,12.20
2023-05-22T02:22:54.608Z,13.95
2023-05-22T02:28:59.453Z,15.68
2023-05-22T02:35:03.150Z,18.15
2023-05-22T02:41:06.891Z,18.30
2023-05-22T02:47:11.671Z,22.10
2023-05-22T02:53:15.882Z,21.90
2023-05-22T02:59:19.636Z,22.42
2023-05-22T03:05:24.503Z,22.30
2023-05-22T03:11:27.967Z,21.95
2023-05-22T03:17:31.395Z,22.83
2023-05-22T03:23:36.312Z,24.90
2023-05-22T03:29:40.000Z,24.25
2023-05-22T03:35:44.674Z,21.25
2023-05-22T03:41:49.688Z,24.92
2023-05-22T03:47:53.558Z,27.67
2023-05-22T03:53:57.052Z,25.08
2023-05-22T04:00:09.750Z,24.00
2023-05-22T04:06:14.657Z,24.40
2023-05-22T04:12:18.377Z,13.57
2023-05-22T04:18:23.252Z,27.17
2023-05-22T04:24:27.635Z,24.27
2023-05-22T04:30:34.252Z,26.05
2023-05-22T04:36:39.164Z,24.15
2023-05-22T04:42:43.422Z,27.30
2023-05-22T04:48:47.243Z,27.38
2023-05-22T04:54:52.773Z,24.15
2023-05-22T05:00:57.834Z,24.42
2023-05-22T05:07:02.514Z,12.10
2023-05-22T05:13:07.380Z,22.55
2023-05-22T05:19:10.904Z,24.35
2023-05-22T05:25:14.536Z,23.83
2023-05-22T05:31:19.548Z,26.13
2023-05-22T05:37:23.240Z,12.77
2023-05-22T05:43:26.690Z,27.35
2023-05-22T05:49:33.063Z,28.52
2023-05-22T05:55:37.650Z,28.45
2023-05-22T06:01:43.365Z,18.90
2023-05-22T06:07:48.336Z,12.07
2023-05-22T06:13:51.785Z,31.38
2023-05-22T06:19:55.510Z,24.35
2023-05-22T06:26:00.371Z,29.13
2023-05-22T06:32:03.859Z,29.70
2023-05-22T06:38:07.365Z,28.30
2023-05-22T06:44:12.314Z,26.00
2023-05-22T06:50:15.719Z,25.58
2023-05-22T06:56:19.783Z,29.20
2023-05-22T07:02:24.624Z,20.58
2023-05-22T07:08:30.327Z,19.67
2023-05-22T07:14:34.093Z,21.20
2023-05-22T07:20:39.219Z,17.80
2023-05-22T07:26:46.364Z,21.35
2023-05-22T07:32:50.398Z,15.30
2023-05-22T07:38:55.484Z,15.05
2023-05-22T07:44:59.033Z,17.75
2023-05-22T07:51:03.761Z,19.05
2023-05-22T07:57:09.044Z,12.23
2023-05-22T08:03:13.583Z,13.38
2023-05-22T08:09:17.295Z,16.17
2023-05-22T08:15:22.458Z,11.48
2023-05-22T08:21:26.154Z,16.27
2023-05-22T08:27:29.689Z,12.98
2023-05-22T08:33:34.836Z,16.73
2023-05-22T08:39:38.555Z,17.48
2023-05-22T08:45:43.816Z,16.48
2023-05-22T08:51:50.578Z,14.52
2023-05-22T08:57:54.833Z,15.93
2023-05-22T09:04:01.850Z,16.10
2023-05-22T09:10:07.316Z,19.20
2023-05-22T09:16:11.177Z,16.48
2023-05-22T09:22:16.851Z,15.88
2023-05-22T09:28:21.823Z,17.20
2023-05-22T09:34:29.811Z,16.10
2023-05-22T09:40:36.164Z,17.17
2023-05-22T09:46:43.438Z,19.23
2023-05-22T09:52:47.634Z,18.77
2023-05-22T09:58:53.154Z,24.05
2023-05-22T10:04:58.032Z,16.17
2023-05-22T10:11:01.533Z,20.35
2023-05-22T10:17:07.102Z,15.02
2023-05-22T10:23:12.345Z,17.77
2023-05-22T10:29:18.794Z,17.70
2023-05-22T10:35:23.063Z,19.67
2023-05-22T10:41:28.290Z,16.38
2023-05-22T10:47:31.784Z,18.33
2023-05-22T10:53:37.582Z,12.95
2023-05-22T10:59:42.693Z,15.82
2023-05-22T11:05:54.098Z,14.38
2023-05-22T11:12:17.092Z,14.77
2023-05-22T11:18:21.957Z,15.23
2023-05-22T11:24:25.780Z,14.23
2023-05-22T11:30:30.741Z,8.85
2023-05-22T11:36:35.963Z,8.73
2023-05-22T11:42:39.499Z,21.45
2023-05-22T11:48:43.440Z,9.88
2023-05-22T11:54:48.767Z,13.70
2023-05-22T12:00:52.273Z,10.68
2023-05-22T12:06:56.160Z,17.75
2023-05-22T12:13:01.134Z,14.20
2023-05-22T12:19:07.549Z,16.63
2023-05-22T12:25:16.292Z,17.85
2023-05-22T12:31:24.451Z,20.40
2023-05-22T12:37:29.099Z,18.10
2023-05-22T12:43:33.406Z,20.85
2023-05-22T12:49:38.385Z,18.27
2023-05-22T12:55:42.037Z,18.83
2023-05-22T13:01:45.934Z,21.27
2023-05-22T13:07:50.846Z,19.52
2023-05-22T13:13:54.254Z,14.20
2023-05-22T13:19:57.959Z,21.65
2023-05-22T13:26:03.725Z,14.77
2023-05-22T13:32:07.591Z,20.17
2023-05-22T13:38:11.336Z,16.05
2023-05-22T13:44:16.421Z,20.25
2023-05-22T13:50:20.114Z,19.65
2023-05-22T13:56:24.276Z,19.48
2023-05-22T14:02:29.279Z,24.02
2023-05-22T14:08:32.823Z,19.60
2023-05-22T14:14:36.673Z,25.13
2023-05-22T14:20:41.950Z,24.05
2023-05-22T14:26:45.712Z,22.05
2023-05-22T14:32:49.695Z,23.52
2023-05-22T14:38:58.003Z,22.13
2023-05-22T14:45:01.448Z,28.65
2023-05-22T14:51:04.901Z,19.30
2023-05-22T14:57:09.824Z,22.67
2023-05-22T15:03:13.512Z,28.05
2023-05-22T15:09:17.141Z,24.23
2023-05-22T15:15:22.132Z,27.00
2023-05-22T15:21:25.864Z,33.70
2023-05-22T15:27:29.347Z,31.02
2023-05-22T15:33:35.193Z,29.25
2023-05-22T15:39:38.679Z,35.10
2023-05-22T15:45:43.254Z,32.13
2023-05-22T15:51:48.372Z,43.75
2023-05-22T15:57:51.874Z,34.30
2023-05-22T16:03:55.284Z,38.67
2023-05-22T16:10:00.169Z,38.70
2023-05-22T16:16:05.982Z,38.95
2023-05-22T16:22:09.875Z,30.52
2023-05-22T16:28:14.651Z,32.97
2023-05-22T16:34:18.594Z,25.15
2023-05-22T16:40:22.019Z,24.80
2023-05-22T16:46:28.000Z,24.73
2023-05-22T16:52:32.034Z,24.25
2023-05-22T16:58:35.894Z,18.13
2023-05-22T17:04:42.051Z,20.98
2023-05-22T17:10:45.576Z,21.65
2023-05-22T17:16:49.238Z,20.23
2023-05-22T17:22:54.176Z,16.95
2023-05-22T17:28:57.616Z,21.38
2023-05-22T17:35:01.772Z,22.00
2023-05-22T17:41:06.685Z,16.38
2023-05-22T17:47:10.171Z,14.57
2023-05-22T17:53:17.982Z,20.73
2023-05-22T17:59:22.831Z,19.05
2023-05-22T18:05:26.450Z,21.55
2023-05-22T18:11:30.025Z,22.30
2023-05-22T18:17:35.422Z,19.55
2023-05-22T18:23:38.871Z,24.60
2023-05-22T18:29:42.644Z,19.55
2023-05-22T18:35:47.475Z,21.90
2023-05-22T18:41:50.885Z,22.23
2023-05-22T18:47:54.838Z,24.58
2023-05-22T18:53:59.988Z,21.10
2023-05-22T19:00:03.924Z,19.42
2023-05-22T19:06:08.366Z,21.50
2023-05-22T19:12:13.432Z,22.05
2023-05-22T19:18:19.008Z,25.63
2023-05-22T19:24:22.458Z,26.60
2023-05-22T19:30:27.291Z,23.85
2023-05-22T19:36:31.291Z,25.13
2023-05-22T19:42:34.799Z,25.48
2023-05-22T19:48:39.680Z,27.05
2023-05-22T19:54:43.172Z,29.35
2023-05-22T20:00:47.614Z,24.95
2023-05-22T20:06:54.140Z,18.60
2023-05-22T20:12:58.110Z,21.73
2023-05-22T20:19:02.689Z,22.45
2023-05-22T20:25:08.744Z,20.73
2023-05-22T20:31:12.212Z,24.15
2023-05-22T20:37:15.631Z,21.02
2023-05-22T20:43:20.605Z,22.50
2023-05-22T20:49:24.012Z,20.30
2023-05-22T20:55:28.120Z,25.23
2023-05-22T21:01:33.130Z,23.88
2023-05-22T21:07:36.720Z,21.20
2023-05-22T21:13:40.529Z,22.40
2023-05-22T21:19:46.309Z,23.50
2023-05-22T21:25:49.895Z,19.83
2023-05-22T21:31:53.766Z,27.17
2023-05-22T21:37:58.973Z,18.50
2023-05-22T21:44:02.443Z,24.33
2023-05-22T21:50:06.193Z,19.83
2023-05-22T21:56:11.136Z,26.83
2023-05-22T22:02:14.573Z,24.23
2023-05-22T22:08:18.282Z,22.27
2023-05-22T22:14:23.205Z,23.90
2023-05-22T22:20:43.267Z,26.65
2023-05-22T22:26:49.354Z,24.73
2023-05-22T22:32:54.421Z,23.67
2023-05-22T22:38:57.908Z,24.85
2023-05-22T22:45:01.337Z,27.08
2023-05-22T22:51:06.179Z,26.40
2023-05-22T22:57:09.681Z,28.77
2023-05-22T23:03:13.147Z,24.58
2023-05-22T23:09:18.057Z,29.88
2023-05-22T23:15:21.532Z,32.13
2023-05-22T23:21:25.228Z,30.75
2023-05-22T23:27:30.261Z,27.67
2023-05-22T23:33:33.927Z,28.48
2023-05-22T23:39:37.477Z,30.17
2023-05-22T23:45:42.539Z,24.23
2023-05-22T23:51:46.406Z,31.33
2023-05-22T23:57:49.998Z,33.72
